Aérodrome :
LOGIN :

S'inscrire | Disclaimer

   EN    FR    IT 

 










Légende :    VFR   VFR Marginal   IFR   IFR Intensif   IFR Très Intensif
Visi : 
Plafond : 
>= 8 km
>= 3000ft
5 à 8 km
1000 à 3000 ft
1500m à 5 km
500 à 1000 ft
800 à 1500m
200 à 500 ft
< 800m
< 200 ft
Symboles :   Orages  Brouillard  Fortes neiges  Fortes précipitations  Vent > 20 kt
SIGMETs :   Divers  Orages  Givrage  Turbulence  Onde Orograph.  Cendres Volcan.






- Altitude de l'aérodrome : 63 ft
- Code IATA : BZM


EHWO - Woensdrecht Airbase

DERNIER METAR :
  • 281606Z AUTO 06008KT 030V090 7000 BR NCD 06/04 Q1020 WHT

METARs EXPIRÉS :
  • 281555Z AUTO 07008KT 8000 BR NCD 06/04 Q1020 BLU
  • 281525Z AUTO 06006KT 030V090 9999 NCD 07/05 Q1020 BLU
  • 281455Z AUTO 06005KT 9999 NCD 08/06 Q1019 BLU
  • 281425Z AUTO 06007KT 030V090 9999 NCD 09/06 Q1019 BLU
  • 281355Z AUTO 06007KT 020V080 9999 NCD 09/06 Q1019 BLU
  • 281325Z AUTO 07008KT 030V100 9999 NCD 09/06 Q1019 BLU

Prévision TAF périmée.



MET'MAP, la Météo Aéronautique d'un coup d'oeil ! - Copyright ORBIFLY Décembre 2007 - Disclaimer

ORBIFLY MET'MAP TEAM :

Programmation & Développement : Alexandra Zaïnal
Sur une idée originale de : Baudouin d'Aumeries
Assistance à la programmation : Marc-Olivier Méhu
Soutien technique & logistique : Manuel Goepfert

Contact : metmap@orbifly.com




SOURCES & CREDITS :

   NOAA